sensor_id;sensor_type;location;lat;lon;timestamp;pressure;altitude;pressure_sealevel;temperature;humidity
60427;BME280;46274;47.168;27.604;2023-09-19T00:06:03;99777.28;;;14.66;60.67
60427;BME280;46274;47.168;27.604;2023-09-19T00:12:13;100017.81;;;15.89;61.88
60427;BME280;46274;47.168;27.604;2023-09-19T00:18:17;100016.97;;;15.55;64.67
60427;BME280;46274;47.168;27.604;2023-09-19T00:24:24;99914.69;;;14.10;69.65
60427;BME280;46274;47.168;27.604;2023-09-19T00:30:29;99699.72;;;12.92;69.27
60427;BME280;46274;47.168;27.604;2023-09-19T00:36:34;100025.25;;;14.80;68.71
60427;BME280;46274;47.168;27.604;2023-09-19T00:42:42;99990.09;;;15.45;63.63
60427;BME280;46274;47.168;27.604;2023-09-19T00:48:47;100011.09;;;15.72;63.32
60427;BME280;46274;47.168;27.604;2023-09-19T00:54:49;99930.88;;;15.26;63.63
60427;BME280;46274;47.168;27.604;2023-09-19T01:00:59;99922.47;;;15.01;65.22
60427;BME280;46274;47.168;27.604;2023-09-19T01:07:02;99982.13;;;15.24;65.21
60427;BME280;46274;47.168;27.604;2023-09-19T01:13:16;99904.84;;;14.83;65.50
60427;BME280;46274;47.168;27.604;2023-09-19T01:25:53;99980.41;;;15.23;66.49
60427;BME280;46274;47.168;27.604;2023-09-19T01:32:17;99963.19;;;15.22;65.25
60427;BME280;46274;47.168;27.604;2023-09-19T01:38:21;99782.22;;;14.09;64.97
60427;BME280;46274;47.168;27.604;2023-09-19T01:44:47;99741.03;;;13.57;68.06
60427;BME280;46274;47.168;27.604;2023-09-19T01:57:29;99956.41;;;13.47;76.38
60427;BME280;46274;47.168;27.604;2023-09-19T02:03:35;99965.56;;;13.40;77.06
60427;BME280;46274;47.168;27.604;2023-09-19T02:09:48;99965.59;;;13.18;79.08
60427;BME280;46274;47.168;27.604;2023-09-19T02:15:53;99960.19;;;14.16;71.23
60427;BME280;46274;47.168;27.604;2023-09-19T02:21:59;99953.78;;;13.89;73.45
60427;BME280;46274;47.168;27.604;2023-09-19T02:28:03;99842.97;;;12.63;77.00
60427;BME280;46274;47.168;27.604;2023-09-19T02:34:11;99898.56;;;13.67;72.87
60427;BME280;46274;47.168;27.604;2023-09-19T02:40:14;99871.75;;;13.64;70.69
60427;BME280;46274;47.168;27.604;2023-09-19T02:46:31;99739.56;;;13.13;69.23
60427;BME280;46274;47.168;27.604;2023-09-19T02:52:34;99851.97;;;13.90;69.50
60427;BME280;46274;47.168;27.604;2023-09-19T02:58:41;99862.44;;;13.86;69.58
60427;BME280;46274;47.168;27.604;2023-09-19T03:04:51;99792.56;;;12.89;75.12
60427;BME280;46274;47.168;27.604;2023-09-19T03:10:54;99922.91;;;13.75;75.45
60427;BME280;46274;47.168;27.604;2023-09-19T03:16:59;99903.34;;;14.06;72.14
60427;BME280;46274;47.168;27.604;2023-09-19T03:23:03;99908.28;;;14.37;69.53
60427;BME280;46274;47.168;27.604;2023-09-19T03:29:08;99901.75;;;14.25;69.15
60427;BME280;46274;47.168;27.604;2023-09-19T03:35:13;99878.38;;;13.96;69.39
60427;BME280;46274;47.168;27.604;2023-09-19T03:41:23;99765.56;;;13.22;69.54
60427;BME280;46274;47.168;27.604;2023-09-19T03:47:25;99811.78;;;13.50;69.79
60427;BME280;46274;47.168;27.604;2023-09-19T03:53:27;99879.06;;;14.11;70.44
60427;BME280;46274;47.168;27.604;2023-09-19T03:59:30;99891.44;;;14.07;69.78
60427;BME280;46274;47.168;27.604;2023-09-19T04:05:32;99882.56;;;12.73;81.35
60427;BME280;46274;47.168;27.604;2023-09-19T04:11:35;99865.28;;;13.08;77.83
60427;BME280;46274;47.168;27.604;2023-09-19T04:17:46;99854.94;;;12.97;81.89
60427;BME280;46274;47.168;27.604;2023-09-19T04:23:55;99853.66;;;12.93;81.59
60427;BME280;46274;47.168;27.604;2023-09-19T04:30:03;99715.06;;;12.43;79.28
60427;BME280;46274;47.168;27.604;2023-09-19T04:36:21;99829.06;;;13.29;81.95
60427;BME280;46274;47.168;27.604;2023-09-19T04:42:36;99809.53;;;13.61;76.96
60427;BME280;46274;47.168;27.604;2023-09-19T04:48:38;99713.19;;;13.14;77.19
60427;BME280;46274;47.168;27.604;2023-09-19T04:54:48;99784.03;;;13.68;74.98
60427;BME280;46274;47.168;27.604;2023-09-19T05:00:57;99838.19;;;14.11;75.27
60427;BME280;46274;47.168;27.604;2023-09-19T05:06:59;99836.75;;;14.22;75.58
60427;BME280;46274;47.168;27.604;2023-09-19T05:13:05;99849.84;;;14.87;77.95
60427;BME280;46274;47.168;27.604;2023-09-19T05:19:18;99729.91;;;14.53;75.90
60427;BME280;46274;47.168;27.604;2023-09-19T05:25:24;99797.81;;;15.08;74.86
60427;BME280;46274;47.168;27.604;2023-09-19T05:31:26;99753.72;;;15.11;73.91
60427;BME280;46274;47.168;27.604;2023-09-19T05:37:54;99827.66;;;15.81;75.33
60427;BME280;46274;47.168;27.604;2023-09-19T05:44:29;99810.69;;;15.73;75.33
60427;BME280;46274;47.168;27.604;2023-09-19T05:50:35;99520.41;;;14.44;74.28
60427;BME280;46274;47.168;27.604;2023-09-19T05:57:24;99808.69;;;16.88;71.24
60427;BME280;46274;47.168;27.604;2023-09-19T06:03:39;99697.78;;;16.61;69.09
60427;BME280;46274;47.168;27.604;2023-09-19T06:10:25;99801.69;;;17.54;68.29
60427;BME280;46274;47.168;27.604;2023-09-19T06:23:49;99683.78;;;17.79;61.87
60427;BME280;46274;47.168;27.604;2023-09-19T06:29:52;99596.44;;;17.83;60.36
60427;BME280;46274;47.168;27.604;2023-09-19T06:36:08;99622.06;;;17.88;59.83
60427;BME280;46274;47.168;27.604;2023-09-19T06:42:27;99789.69;;;19.11;58.72
60427;BME280;46274;47.168;27.604;2023-09-19T06:49:06;99766.69;;;19.41;58.51
60427;BME280;46274;47.168;27.604;2023-09-19T07:10:52;99469.94;;;18.50;54.65
60427;BME280;46274;47.168;27.604;2023-09-19T07:17:27;99524.47;;;18.87;54.06
60427;BME280;46274;47.168;27.604;2023-09-19T07:23:33;99697.47;;;19.96;54.03
60427;BME280;46274;47.168;27.604;2023-09-19T07:29:40;99755.97;;;20.37;53.20
60427;BME280;46274;47.168;27.604;2023-09-19T07:35:55;99525.56;;;18.74;52.99
60427;BME280;46274;47.168;27.604;2023-09-19T07:42:15;99693.66;;;20.14;52.40
60427;BME280;46274;47.168;27.604;2023-09-19T07:48:28;99731.06;;;20.61;52.25
60427;BME280;46274;47.168;27.604;2023-09-19T07:54:31;99760.41;;;20.72;51.13
60427;BME280;46274;47.168;27.604;2023-09-19T08:00:50;99783.94;;;20.97;50.42
60427;BME280;46274;47.168;27.604;2023-09-19T08:07:07;99698.69;;;20.34;51.23
60427;BME280;46274;47.168;27.604;2023-09-19T08:13:16;99674.16;;;20.33;51.93
60427;BME280;46274;47.168;27.604;2023-09-19T08:19:21;99789.34;;;20.75;51.83
60427;BME280;46274;47.168;27.604;2023-09-19T08:25:41;99712.34;;;20.29;52.61
60427;BME280;46274;47.168;27.604;2023-09-19T08:31:54;99707.31;;;20.26;52.97
60427;BME280;46274;47.168;27.604;2023-09-19T08:38:01;99507.03;;;19.22;52.82
60427;BME280;46274;47.168;27.604;2023-09-19T08:44:07;99769.38;;;21.01;52.87
60427;BME280;46274;47.168;27.604;2023-09-19T08:51:03;99692.75;;;20.76;52.09
60427;BME280;46274;47.168;27.604;2023-09-19T09:04:08;99529.97;;;20.12;50.62
60427;BME280;46274;47.168;27.604;2023-09-19T09:10:28;99773.38;;;21.93;49.67
60427;BME280;46274;47.168;27.604;2023-09-19T09:16:30;99727.63;;;21.70;49.06
60427;BME280;46274;47.168;27.604;2023-09-19T09:22:53;99771.56;;;22.04;48.89
60427;BME280;46274;47.168;27.604;2023-09-19T09:28:56;99769.25;;;22.45;48.90
60427;BME280;46274;47.168;27.604;2023-09-19T09:35:01;99776.66;;;22.17;47.88
60427;BME280;46274;47.168;27.604;2023-09-19T09:41:36;99642.50;;;21.52;47.98
60427;BME280;46274;47.168;27.604;2023-09-19T09:48:01;99796.28;;;22.43;47.35
60427;BME280;46274;47.168;27.604;2023-09-19T09:54:17;99672.47;;;21.70;47.05
60427;BME280;46274;47.168;27.604;2023-09-19T10:01:02;99657.09;;;21.74;48.22
60427;BME280;46274;47.168;27.604;2023-09-19T10:07:32;99784.81;;;22.29;48.83
60427;BME280;46274;47.168;27.604;2023-09-19T10:13:46;99778.34;;;22.46;48.38
60427;BME280;46274;47.168;27.604;2023-09-19T10:20:16;99586.75;;;21.72;48.56
60427;BME280;46274;47.168;27.604;2023-09-19T10:26:43;99761.91;;;22.93;48.37
60427;BME280;46274;47.168;27.604;2023-09-19T10:33:03;99510.97;;;21.20;48.01
60427;BME280;46274;47.168;27.604;2023-09-19T10:39:19;99515.31;;;21.16;48.66
60427;BME280;46274;47.168;27.604;2023-09-19T10:46:00;99776.06;;;22.64;48.83
60427;BME280;46274;47.168;27.604;2023-09-19T10:52:08;99767.75;;;22.32;49.19
60427;BME280;46274;47.168;27.604;2023-09-19T10:58:31;99668.00;;;21.64;51.78
60427;BME280;46274;47.168;27.604;2023-09-19T11:05:10;99497.47;;;20.47;53.01
60427;BME280;46274;47.168;27.604;2023-09-19T11:11:42;99775.84;;;22.17;53.82
60427;BME280;46274;47.168;27.604;2023-09-19T11:24:30;99739.81;;;21.74;51.96
60427;BME280;46274;47.168;27.604;2023-09-19T11:30:36;99762.09;;;21.95;52.68
60427;BME280;46274;47.168;27.604;2023-09-19T11:36:40;99667.75;;;21.00;53.05
60427;BME280;46274;47.168;27.604;2023-09-19T11:42:52;99780.53;;;21.45;55.30
60427;BME280;46274;47.168;27.604;2023-09-19T11:49:10;99801.81;;;21.33;56.68
60427;BME280;46274;47.168;27.604;2023-09-19T12:01:58;99754.78;;;21.01;60.72
60427;BME280;46274;47.168;27.604;2023-09-19T12:08:05;99791.94;;;20.98;60.51
60427;BME280;46274;47.168;27.604;2023-09-19T12:14:10;99782.09;;;20.06;65.94
60427;BME280;46274;47.168;27.604;2023-09-19T12:20:14;99764.59;;;18.96;72.15
60427;BME280;46274;47.168;27.604;2023-09-19T12:26:19;99751.78;;;18.66;74.14
60427;BME280;46274;47.168;27.604;2023-09-19T12:32:37;99643.09;;;18.06;75.42
60427;BME280;46274;47.168;27.604;2023-09-19T12:38:56;99645.22;;;17.93;76.77
60427;BME280;46274;47.168;27.604;2023-09-19T12:53:06;99839.59;;;18.24;83.68
60427;BME280;46274;47.168;27.604;2023-09-19T13:05:52;99776.59;;;18.60;82.18
60427;BME280;46274;47.168;27.604;2023-09-19T13:12:02;99578.16;;;17.65;78.95
60427;BME280;46274;47.168;27.604;2023-09-19T13:18:30;99811.88;;;18.86;82.59
60427;BME280;46274;47.168;27.604;2023-09-19T13:24:34;99512.78;;;17.15;81.05
60427;BME280;46274;47.168;27.604;2023-09-19T13:30:55;99688.03;;;18.17;82.39
60427;BME280;46274;47.168;27.604;2023-09-19T13:36:58;99753.94;;;18.64;81.93
60427;BME280;46274;47.168;27.604;2023-09-19T13:43:18;99651.16;;;17.90;84.35
60427;BME280;46274;47.168;27.604;2023-09-19T13:49:25;99799.09;;;18.92;83.41
60427;BME280;46274;47.168;27.604;2023-09-19T13:55:34;99608.28;;;17.53;86.27
60427;BME280;46274;47.168;27.604;2023-09-19T14:01:37;99606.91;;;17.32;88.26
60427;BME280;46274;47.168;27.604;2023-09-19T14:07:41;99525.81;;;17.01;87.07
60427;BME280;46274;47.168;27.604;2023-09-19T14:13:47;99622.16;;;17.40;89.15
60427;BME280;46274;47.168;27.604;2023-09-19T14:19:58;99742.53;;;18.14;89.47
60427;BME280;46274;47.168;27.604;2023-09-19T14:26:03;99696.69;;;17.91;89.06
60427;BME280;46274;47.168;27.604;2023-09-19T14:32:19;99646.16;;;17.56;89.41
60427;BME280;46274;47.168;27.604;2023-09-19T14:38:30;99427.06;;;16.42;86.97
60427;BME280;46274;47.168;27.604;2023-09-19T14:44:53;99455.72;;;16.40;89.00
60427;BME280;46274;47.168;27.604;2023-09-19T14:51:09;99641.00;;;17.48;89.32
60427;BME280;46274;47.168;27.604;2023-09-19T14:57:34;99664.16;;;17.64;88.07
60427;BME280;46274;47.168;27.604;2023-09-19T15:03:54;99713.38;;;17.89;89.77
60427;BME280;46274;47.168;27.604;2023-09-19T15:10:03;99671.69;;;17.69;90.39
